createdAt,value
2022-12-16T00:01:23.048Z,-4.70
2022-12-16T00:04:10.756Z,-4.60
2022-12-16T00:06:59.677Z,-4.60
2022-12-16T00:09:47.621Z,-4.60
2022-12-16T00:12:35.055Z,-4.50
2022-12-16T00:15:22.365Z,-4.50
2022-12-16T00:18:09.727Z,-4.40
2022-12-16T00:20:57.308Z,-4.40
2022-12-16T00:23:46.334Z,-4.40
2022-12-16T00:26:33.902Z,-4.30
2022-12-16T00:29:21.668Z,-4.30
2022-12-16T00:32:09.206Z,-4.20
2022-12-16T00:34:56.667Z,-4.20
2022-12-16T00:37:43.999Z,-4.20
2022-12-16T00:40:32.865Z,-4.20
2022-12-16T00:43:20.893Z,-4.20
2022-12-16T00:46:08.499Z,-4.20
2022-12-16T00:48:56.294Z,-4.20
2022-12-16T00:51:43.846Z,-4.10
2022-12-16T00:54:31.194Z,-4.10
2022-12-16T00:57:19.967Z,-4.00
2022-12-16T01:00:12.968Z,-4.00
2022-12-16T01:03:03.767Z,-4.00
2022-12-16T01:05:51.287Z,-4.00
2022-12-16T01:08:40.591Z,-3.90
2022-12-16T01:11:28.144Z,-3.90
2022-12-16T01:14:16.793Z,-3.90
2022-12-16T01:17:04.427Z,-3.90
2022-12-16T01:19:51.880Z,-3.90
2022-12-16T01:22:39.941Z,-3.80
2022-12-16T01:25:28.023Z,-3.70
2022-12-16T01:28:15.343Z,-3.70
2022-12-16T01:31:04.073Z,-3.70
2022-12-16T01:33:51.951Z,-3.70
2022-12-16T01:36:39.610Z,-3.70
2022-12-16T01:39:30.185Z,-3.60
2022-12-16T01:42:20.364Z,-3.60
2022-12-16T01:45:31.510Z,-3.60
2022-12-16T01:48:26.009Z,-3.50
2022-12-16T01:51:19.193Z,-3.50
2022-12-16T01:54:11.366Z,-3.50
2022-12-16T01:57:01.939Z,-3.50
2022-12-16T01:59:51.921Z,-3.50
2022-12-16T02:02:39.775Z,-3.50
2022-12-16T02:05:30.199Z,-3.50
2022-12-16T02:08:19.108Z,-3.40
2022-12-16T02:11:25.861Z,-3.40
2022-12-16T02:14:32.444Z,-3.30
2022-12-16T02:17:29.520Z,-3.30
2022-12-16T02:20:59.269Z,-3.30
2022-12-16T02:24:20.397Z,-3.30
2022-12-16T02:27:35.734Z,-3.30
2022-12-16T02:30:46.120Z,-3.20
2022-12-16T02:33:57.291Z,-3.20
2022-12-16T02:36:58.538Z,-3.10
2022-12-16T02:39:53.467Z,-3.10
2022-12-16T02:42:48.576Z,-3.10
2022-12-16T02:45:39.034Z,-3.10
2022-12-16T02:48:26.715Z,-3.10
2022-12-16T02:51:14.997Z,-3.10
2022-12-16T02:54:03.255Z,-3.10
2022-12-16T02:57:03.259Z,-3.10
2022-12-16T02:59:58.709Z,-3.00
2022-12-16T03:02:54.963Z,-3.00
2022-12-16T03:05:48.280Z,-3.00
2022-12-16T03:08:40.424Z,-3.00
2022-12-16T03:11:31.088Z,-3.00
2022-12-16T03:14:21.641Z,-3.00
2022-12-16T03:17:10.050Z,-2.90
2022-12-16T03:20:08.674Z,-3.00
2022-12-16T03:23:00.612Z,-3.00
2022-12-16T03:25:51.793Z,-2.90
2022-12-16T03:28:46.848Z,-2.90
2022-12-16T03:31:39.964Z,-2.90
2022-12-16T03:34:35.743Z,-2.90
2022-12-16T03:37:30.035Z,-2.90
2022-12-16T03:40:19.113Z,-2.90
2022-12-16T03:43:08.007Z,-2.90
2022-12-16T03:45:59.674Z,-2.90
2022-12-16T03:48:49.796Z,-2.90
2022-12-16T03:51:37.226Z,-2.80
2022-12-16T03:54:26.031Z,-2.80
2022-12-16T03:57:15.680Z,-2.80
2022-12-16T04:00:04.221Z,-2.80
2022-12-16T04:02:59.194Z,-2.80
2022-12-16T04:05:47.147Z,-2.80
2022-12-16T04:08:34.743Z,-2.80
2022-12-16T04:11:40.942Z,-2.70
2022-12-16T04:14:50.277Z,-2.70
2022-12-16T04:17:58.197Z,-2.80
2022-12-16T04:21:06.406Z,-2.80
2022-12-16T04:24:14.592Z,-2.80
2022-12-16T04:27:20.971Z,-2.80
2022-12-16T04:30:22.097Z,-2.80
2022-12-16T04:33:33.125Z,-2.80
2022-12-16T04:36:38.076Z,-2.80
2022-12-16T04:39:42.709Z,-2.70
2022-12-16T04:42:49.479Z,-2.70
2022-12-16T04:45:54.483Z,-2.70
2022-12-16T04:48:55.923Z,-2.70
2022-12-16T04:52:00.832Z,-2.70
2022-12-16T04:55:05.593Z,-2.70
2022-12-16T04:58:28.120Z,-2.70
2022-12-16T05:01:33.290Z,-2.70
2022-12-16T05:04:38.769Z,-2.70
2022-12-16T05:07:44.052Z,-2.70
2022-12-16T05:10:48.933Z,-2.70
2022-12-16T05:13:55.168Z,-2.70
2022-12-16T05:17:00.244Z,-2.70
2022-12-16T05:20:04.842Z,-2.70
2022-12-16T05:23:09.749Z,-2.70
2022-12-16T05:26:29.246Z,-2.70
2022-12-16T05:29:36.025Z,-2.70
2022-12-16T05:32:41.070Z,-2.70
2022-12-16T05:35:57.726Z,-2.70
2022-12-16T05:39:02.947Z,-2.70
2022-12-16T05:42:08.214Z,-2.70
2022-12-16T05:45:14.475Z,-2.70
2022-12-16T05:48:28.028Z,-2.70
2022-12-16T05:51:32.723Z,-2.70
2022-12-16T05:54:37.720Z,-2.70
2022-12-16T05:57:42.612Z,-2.70
2022-12-16T06:00:49.024Z,-2.70
2022-12-16T06:03:54.147Z,-2.70
2022-12-16T06:06:59.354Z,-2.70
2022-12-16T06:10:12.683Z,-2.70
2022-12-16T06:13:17.804Z,-2.70
2022-12-16T06:16:24.687Z,-2.70
2022-12-16T06:19:29.431Z,-2.70
2022-12-16T06:22:33.914Z,-2.70
2022-12-16T06:25:38.970Z,-2.70
2022-12-16T06:28:45.997Z,-2.70
2022-12-16T06:31:52.795Z,-2.70
2022-12-16T06:34:57.462Z,-2.70
2022-12-16T06:38:05.692Z,-2.60
2022-12-16T06:41:10.706Z,-2.60
2022-12-16T06:44:15.912Z,-2.60
2022-12-16T06:47:22.258Z,-2.60
2022-12-16T06:50:28.016Z,-2.60
2022-12-16T06:53:33.601Z,-2.50
2022-12-16T06:56:38.513Z,-2.50
2022-12-16T06:59:43.398Z,-2.40
2022-12-16T07:02:49.832Z,-2.40
2022-12-16T07:05:54.503Z,-2.40
2022-12-16T07:08:59.017Z,-2.30
2022-12-16T07:12:03.753Z,-2.30
2022-12-16T07:15:08.329Z,-2.20
2022-12-16T07:18:14.758Z,-2.20
2022-12-16T07:21:19.224Z,-2.20
2022-12-16T07:24:24.478Z,-2.10
2022-12-16T07:27:31.337Z,-2.10
2022-12-16T07:30:36.626Z,-2.10
2022-12-16T07:33:42.724Z,-2.10
2022-12-16T07:36:47.671Z,-2.20
2022-12-16T07:39:55.109Z,-2.10
2022-12-16T07:43:00.997Z,-2.20
2022-12-16T07:46:06.015Z,-2.20
2022-12-16T07:49:12.601Z,-2.20
2022-12-16T07:52:29.303Z,-2.20
2022-12-16T07:55:34.800Z,-2.20
2022-12-16T07:58:36.001Z,-2.30
2022-12-16T08:01:41.815Z,-2.30
2022-12-16T08:04:48.006Z,-2.30
2022-12-16T08:07:53.230Z,-2.30
2022-12-16T08:11:12.987Z,-2.30
2022-12-16T08:14:18.316Z,-2.30
2022-12-16T08:17:23.119Z,-2.30
2022-12-16T08:20:29.552Z,-2.30
2022-12-16T08:23:34.795Z,-2.30
2022-12-16T08:26:40.457Z,-2.30
2022-12-16T08:29:45.780Z,-2.20
2022-12-16T08:32:55.705Z,-2.20
2022-12-16T08:36:05.157Z,-2.10
2022-12-16T08:39:10.337Z,-2.10
2022-12-16T08:42:15.659Z,-2.20
2022-12-16T08:45:20.594Z,-2.10
2022-12-16T08:48:25.317Z,-2.10
2022-12-16T08:51:31.850Z,-2.10
2022-12-16T08:54:36.767Z,-2.10
2022-12-16T08:57:41.761Z,-2.00
2022-12-16T09:00:48.804Z,-2.00
2022-12-16T09:03:54.083Z,-2.00
2022-12-16T09:07:00.790Z,-2.00
2022-12-16T09:10:05.802Z,-2.10
2022-12-16T09:13:11.017Z,-2.00
2022-12-16T09:16:19.381Z,-2.00
2022-12-16T09:19:25.116Z,-1.90
2022-12-16T09:22:31.360Z,-1.90
2022-12-16T09:25:36.422Z,-1.80
2022-12-16T09:28:41.185Z,-1.80
2022-12-16T09:31:46.194Z,-1.80
2022-12-16T09:34:51.378Z,-1.80
2022-12-16T09:38:04.092Z,-1.80
2022-12-16T09:41:08.581Z,-1.80
2022-12-16T09:44:21.018Z,-1.90
2022-12-16T09:47:36.217Z,-1.90
2022-12-16T09:50:46.460Z,-1.90
2022-12-16T09:54:04.121Z,-1.90
2022-12-16T09:57:09.121Z,-1.90
2022-12-16T10:00:19.469Z,-1.80
2022-12-16T10:03:32.248Z,-1.90
2022-12-16T10:06:55.859Z,-1.80
2022-12-16T10:10:11.471Z,-1.80
2022-12-16T10:13:26.739Z,-1.70
2022-12-16T10:16:40.173Z,-1.70
2022-12-16T10:19:57.550Z,-1.80
2022-12-16T10:23:11.162Z,-1.80
2022-12-16T10:26:22.672Z,-1.80
2022-12-16T10:29:35.267Z,-1.80
2022-12-16T10:32:58.856Z,-1.70
2022-12-16T10:36:08.166Z,-1.70
2022-12-16T10:39:19.353Z,-1.70
2022-12-16T10:42:36.653Z,-1.60
2022-12-16T10:45:46.840Z,-1.50
2022-12-16T10:48:56.936Z,-1.40
2022-12-16T10:52:08.190Z,-1.40
2022-12-16T10:55:21.994Z,-1.40
2022-12-16T10:58:41.647Z,-1.40
2022-12-16T11:01:47.542Z,-1.50
2022-12-16T11:04:55.602Z,-1.50
2022-12-16T11:08:12.028Z,-1.50
2022-12-16T11:11:20.299Z,-1.60
2022-12-16T11:14:36.110Z,-1.60
2022-12-16T11:17:42.099Z,-1.70
2022-12-16T11:20:46.826Z,-1.60
2022-12-16T11:23:51.505Z,-1.60
2022-12-16T11:27:11.831Z,-1.60
2022-12-16T11:30:20.237Z,-1.50
2022-12-16T11:33:33.313Z,-1.50
2022-12-16T11:36:42.474Z,-1.50
2022-12-16T11:39:53.322Z,-1.50
2022-12-16T11:43:01.413Z,-1.50
2022-12-16T11:46:13.383Z,-1.40
2022-12-16T11:49:24.971Z,-1.40
2022-12-16T11:52:37.756Z,-1.30
2022-12-16T11:59:20.666Z,-1.30
2022-12-16T12:02:33.762Z,-1.20
2022-12-16T12:05:46.678Z,-1.10
2022-12-16T12:08:59.828Z,-1.10
2022-12-16T12:12:16.489Z,-1.10
2022-12-16T12:15:33.616Z,-1.10
2022-12-16T12:19:02.568Z,-1.20
2022-12-16T12:22:18.521Z,-1.30
2022-12-16T12:25:28.737Z,-1.40
2022-12-16T12:28:46.924Z,-1.50
2022-12-16T12:32:01.029Z,-1.50
2022-12-16T12:35:15.676Z,-1.40
2022-12-16T12:38:28.060Z,-1.40
2022-12-16T12:41:38.383Z,-1.40
2022-12-16T12:44:54.528Z,-1.30
2022-12-16T12:48:08.901Z,-1.40
2022-12-16T12:51:23.184Z,-1.40
2022-12-16T12:54:38.142Z,-1.50
2022-12-16T12:57:46.390Z,-1.50
2022-12-16T13:00:58.158Z,-1.50
2022-12-16T13:04:20.581Z,-1.60
2022-12-16T13:07:27.627Z,-1.60
2022-12-16T13:10:52.683Z,-1.60
2022-12-16T13:13:57.421Z,-1.60
2022-12-16T13:17:26.161Z,-1.60
2022-12-16T13:20:54.295Z,-1.60
2022-12-16T13:24:03.842Z,-1.60
2022-12-16T13:27:20.224Z,-1.60
2022-12-16T13:30:43.229Z,-1.60
2022-12-16T13:33:49.728Z,-1.60
2022-12-16T13:36:54.951Z,-1.60
2022-12-16T13:40:02.884Z,-1.60
2022-12-16T13:43:11.639Z,-1.70
2022-12-16T13:46:35.061Z,-1.60
2022-12-16T13:50:01.483Z,-1.60
2022-12-16T13:53:11.566Z,-1.70
2022-12-16T13:56:19.587Z,-1.80
2022-12-16T13:59:30.284Z,-1.80
2022-12-16T14:02:44.455Z,-1.70
2022-12-16T14:05:55.020Z,-1.80
2022-12-16T14:09:00.431Z,-1.80
2022-12-16T14:12:14.186Z,-1.70
2022-12-16T14:15:24.433Z,-1.70
2022-12-16T14:18:43.391Z,-1.70
2022-12-16T14:21:56.540Z,-1.70
2022-12-16T14:25:01.274Z,-1.70
2022-12-16T14:28:08.035Z,-1.70
2022-12-16T14:31:23.094Z,-1.80
2022-12-16T14:34:33.602Z,-1.80
2022-12-16T14:37:40.876Z,-1.80
2022-12-16T14:40:48.474Z,-1.80
2022-12-16T14:43:54.878Z,-1.80
2022-12-16T14:47:01.519Z,-1.80
2022-12-16T14:50:09.326Z,-1.80
2022-12-16T14:53:31.875Z,-1.70
2022-12-16T14:56:39.242Z,-1.80
2022-12-16T14:59:45.432Z,-1.80
2022-12-16T15:02:58.058Z,-1.80
2022-12-16T15:06:04.190Z,-1.80
2022-12-16T15:09:12.268Z,-1.80
2022-12-16T15:12:17.356Z,-1.80
2022-12-16T15:15:27.845Z,-1.80
2022-12-16T15:18:38.058Z,-1.80
2022-12-16T15:21:43.117Z,-1.80
2022-12-16T15:24:53.335Z,-1.80
2022-12-16T15:27:58.787Z,-1.80
2022-12-16T15:31:06.480Z,-1.80
2022-12-16T15:34:43.910Z,-1.80
2022-12-16T15:37:56.975Z,-1.80
2022-12-16T15:41:10.112Z,-1.80
2022-12-16T15:44:15.121Z,-1.80
2022-12-16T15:47:20.205Z,-1.80
2022-12-16T15:50:32.065Z,-1.80
2022-12-16T15:53:49.938Z,-1.80
2022-12-16T15:57:02.966Z,-1.70
2022-12-16T16:00:25.940Z,-1.70
2022-12-16T16:03:44.723Z,-1.70
2022-12-16T16:06:51.058Z,-1.70
2022-12-16T16:09:57.038Z,-1.70
2022-12-16T16:13:02.050Z,-1.70
2022-12-16T16:16:07.002Z,-1.80
2022-12-16T16:19:12.051Z,-1.80
2022-12-16T16:22:18.264Z,-1.80
2022-12-16T16:25:24.226Z,-1.80
2022-12-16T16:28:29.561Z,-1.80
2022-12-16T16:31:34.744Z,-1.80
2022-12-16T16:34:40.498Z,-1.80
2022-12-16T16:37:47.131Z,-1.80
2022-12-16T16:40:54.268Z,-1.70
2022-12-16T16:43:59.037Z,-1.80
2022-12-16T16:47:05.924Z,-1.80
2022-12-16T16:50:14.799Z,-1.80
2022-12-16T16:53:32.637Z,-1.80
2022-12-16T16:56:38.594Z,-1.80
2022-12-16T16:59:44.163Z,-1.80
2022-12-16T17:02:49.045Z,-1.80
2022-12-16T17:05:54.421Z,-1.80
2022-12-16T17:09:01.304Z,-1.80
2022-12-16T17:12:06.103Z,-1.80
2022-12-16T17:15:11.160Z,-1.80
2022-12-16T17:18:15.811Z,-1.80
2022-12-16T17:21:20.916Z,-1.80
2022-12-16T17:24:27.085Z,-1.80
2022-12-16T17:27:33.673Z,-1.80
2022-12-16T17:30:46.543Z,-1.80
2022-12-16T17:33:52.255Z,-1.80
2022-12-16T17:36:57.114Z,-1.80
2022-12-16T17:40:03.394Z,-1.80
2022-12-16T17:43:08.082Z,-1.80
2022-12-16T17:46:18.366Z,-1.80
2022-12-16T17:49:19.778Z,-1.80
2022-12-16T17:52:25.066Z,-1.80
2022-12-16T17:55:31.867Z,-1.80
2022-12-16T17:58:36.834Z,-1.80
2022-12-16T18:01:42.531Z,-1.80
2022-12-16T18:04:47.806Z,-1.80
2022-12-16T18:07:53.472Z,-1.90
2022-12-16T18:11:00.012Z,-1.90
2022-12-16T18:14:07.592Z,-1.90
2022-12-16T18:17:12.624Z,-1.90
2022-12-16T18:20:19.920Z,-2.00
2022-12-16T18:23:25.113Z,-2.00
2022-12-16T18:26:31.274Z,-2.00
2022-12-16T18:29:36.187Z,-2.00
2022-12-16T18:32:41.317Z,-2.00
2022-12-16T18:35:46.396Z,-2.10
2022-12-16T18:38:51.075Z,-2.10
2022-12-16T18:42:03.476Z,-2.10
2022-12-16T18:45:08.677Z,-2.10
2022-12-16T18:48:13.556Z,-2.10
2022-12-16T18:51:18.873Z,-2.10
2022-12-16T18:54:24.456Z,-2.10
2022-12-16T18:57:33.960Z,-2.10
2022-12-16T19:00:42.807Z,-2.20
2022-12-16T19:03:47.972Z,-2.20
2022-12-16T19:06:53.003Z,-2.20
2022-12-16T19:09:57.567Z,-2.20
2022-12-16T19:13:04.005Z,-2.30
2022-12-16T19:16:13.911Z,-2.30
2022-12-16T19:19:20.488Z,-2.30
2022-12-16T19:22:25.757Z,-2.30
2022-12-16T19:25:30.911Z,-2.30
2022-12-16T19:28:37.652Z,-2.30
2022-12-16T19:31:42.797Z,-2.30
2022-12-16T19:34:47.454Z,-2.30
2022-12-16T19:37:53.630Z,-2.40
2022-12-16T19:40:58.511Z,-2.40
2022-12-16T19:44:06.465Z,-2.40
2022-12-16T19:47:14.219Z,-2.30
2022-12-16T19:50:18.766Z,-2.30
2022-12-16T19:53:23.563Z,-2.30
2022-12-16T19:56:27.962Z,-2.30
2022-12-16T19:59:34.916Z,-2.40
2022-12-16T20:02:39.808Z,-2.30
2022-12-16T20:05:45.053Z,-2.30
2022-12-16T20:08:52.151Z,-2.40
2022-12-16T20:11:57.662Z,-2.40
2022-12-16T20:15:04.169Z,-2.30
2022-12-16T20:18:09.598Z,-2.40
2022-12-16T20:21:14.659Z,-2.40
2022-12-16T20:24:19.652Z,-2.40
2022-12-16T20:27:24.746Z,-2.40
2022-12-16T20:30:31.387Z,-2.40
2022-12-16T20:33:36.326Z,-2.50
2022-12-16T20:36:41.554Z,-2.50
2022-12-16T20:39:52.917Z,-2.50
2022-12-16T20:43:01.477Z,-2.50
2022-12-16T20:46:07.881Z,-2.50
2022-12-16T20:49:12.806Z,-2.50
2022-12-16T20:52:17.771Z,-2.50
2022-12-16T20:55:22.866Z,-2.50
2022-12-16T20:58:27.536Z,-2.50
2022-12-16T21:01:33.861Z,-2.50
2022-12-16T21:04:38.619Z,-2.50
2022-12-16T21:07:43.413Z,-2.50
2022-12-16T21:10:48.492Z,-2.50
2022-12-16T21:13:56.471Z,-2.60
2022-12-16T21:17:19.804Z,-2.60
2022-12-16T21:20:25.223Z,-2.60
2022-12-16T21:23:31.380Z,-2.60
2022-12-16T21:26:35.903Z,-2.70
2022-12-16T21:29:40.674Z,-2.70
2022-12-16T21:32:47.273Z,-2.70
2022-12-16T21:35:51.942Z,-2.70
2022-12-16T21:38:57.289Z,-2.70
2022-12-16T21:42:01.955Z,-2.80
2022-12-16T21:45:03.151Z,-2.80
2022-12-16T21:48:13.239Z,-2.90
2022-12-16T21:51:18.242Z,-2.90
2022-12-16T21:54:23.437Z,-2.90
2022-12-16T21:57:29.184Z,-2.90
2022-12-16T22:00:34.793Z,-2.90
2022-12-16T22:03:41.241Z,-2.90
2022-12-16T22:06:48.868Z,-3.00
2022-12-16T22:09:54.308Z,-3.00
2022-12-16T22:13:00.976Z,-2.90
2022-12-16T22:16:14.414Z,-3.00
2022-12-16T22:19:20.653Z,-3.00
2022-12-16T22:22:25.348Z,-3.10
2022-12-16T22:25:30.081Z,-3.10
2022-12-16T22:28:35.034Z,-3.10
2022-12-16T22:31:39.572Z,-3.10
2022-12-16T22:34:45.875Z,-3.10
2022-12-16T22:37:50.799Z,-3.10
2022-12-16T22:40:56.613Z,-3.20
2022-12-16T22:44:02.460Z,-3.20
2022-12-16T22:47:07.333Z,-3.20
2022-12-16T22:50:13.879Z,-3.20
2022-12-16T22:53:18.464Z,-3.20
2022-12-16T22:56:23.657Z,-3.30
2022-12-16T22:59:28.400Z,-3.20
2022-12-16T23:02:33.213Z,-3.20
2022-12-16T23:05:39.360Z,-3.20
2022-12-16T23:08:44.198Z,-3.20
2022-12-16T23:11:53.734Z,-3.20
2022-12-16T23:15:01.526Z,-3.20
2022-12-16T23:18:11.470Z,-3.20
2022-12-16T23:21:17.775Z,-3.20
2022-12-16T23:24:22.923Z,-3.20
2022-12-16T23:27:24.203Z,-3.20
2022-12-16T23:30:30.107Z,-3.20
2022-12-16T23:33:35.322Z,-3.20
2022-12-16T23:36:53.341Z,-3.20
2022-12-16T23:39:58.450Z,-3.20
2022-12-16T23:43:03.572Z,-3.20
2022-12-16T23:46:17.203Z,-3.20
2022-12-16T23:49:22.693Z,-3.20
2022-12-16T23:52:29.243Z,-3.20
2022-12-16T23:55:34.478Z,-3.20
2022-12-16T23:58:39.609Z,-3.20
